createdAt,value
2019-02-23T00:01:20.685Z,62.63
2019-02-23T00:03:49.096Z,62.54
2019-02-23T00:06:28.985Z,62.38
2019-02-23T00:08:47.618Z,62.22
2019-02-23T00:11:16.018Z,62.08
2019-02-23T00:13:44.419Z,62.05
2019-02-23T00:16:12.822Z,61.92
2019-02-23T00:18:41.243Z,61.92
2019-02-23T00:21:09.643Z,61.92
2019-02-23T00:23:38.457Z,61.93
2019-02-23T00:26:07.239Z,61.94
2019-02-23T00:28:35.910Z,61.64
2019-02-23T00:31:07.183Z,61.81
2019-02-23T00:33:35.944Z,61.76
2019-02-23T00:36:04.340Z,61.64
2019-02-23T00:38:32.769Z,61.53
2019-02-23T00:41:01.702Z,61.51
2019-02-23T00:43:30.122Z,61.52
2019-02-23T00:45:58.499Z,61.48
2019-02-23T00:48:26.894Z,61.51
2019-02-23T00:50:55.303Z,61.34
2019-02-23T00:53:23.691Z,61.31
2019-02-23T00:55:52.107Z,61.19
2019-02-23T00:58:20.964Z,61.12
2019-02-23T01:00:49.375Z,61.16
2019-02-23T01:03:17.776Z,61.08
2019-02-23T01:05:46.515Z,61.00
2019-02-23T01:08:14.902Z,61.06
2019-02-23T01:10:43.314Z,61.16
2019-02-23T01:13:11.707Z,61.12
2019-02-23T01:15:40.125Z,61.23
2019-02-23T01:18:08.515Z,61.28
2019-02-23T01:20:36.934Z,61.31
2019-02-23T01:23:05.777Z,61.38
2019-02-23T01:25:34.186Z,61.47
2019-02-23T01:28:02.575Z,61.63
2019-02-23T01:30:30.974Z,61.76
2019-02-23T01:32:59.395Z,61.86
2019-02-23T01:35:28.082Z,62.06
2019-02-23T01:37:56.490Z,62.33
2019-02-23T01:40:25.145Z,62.40
2019-02-23T01:42:55.089Z,62.49
2019-02-23T01:45:23.483Z,62.65
2019-02-23T01:47:52.228Z,62.79
2019-02-23T01:50:20.622Z,62.86
2019-02-23T01:52:49.035Z,62.87
2019-02-23T01:55:17.767Z,63.29
2019-02-23T01:57:46.180Z,63.39
2019-02-23T02:00:15.432Z,63.46
2019-02-23T02:02:44.505Z,63.50
2019-02-23T02:05:12.985Z,63.54
2019-02-23T02:07:41.400Z,63.70
2019-02-23T02:10:10.695Z,63.77
2019-02-23T02:12:39.102Z,63.97
2019-02-23T02:15:12.681Z,64.13
2019-02-23T02:17:41.104Z,64.20
2019-02-23T02:20:11.447Z,64.29
2019-02-23T02:22:40.090Z,64.36
2019-02-23T02:25:09.157Z,64.50
2019-02-23T02:27:37.868Z,64.59
2019-02-23T02:30:09.109Z,64.70
2019-02-23T02:32:37.792Z,64.85
2019-02-23T02:35:07.986Z,65.02
2019-02-23T02:37:36.419Z,65.16
2019-02-23T02:40:06.172Z,65.37
2019-02-23T02:42:34.899Z,65.59
2019-02-23T02:45:03.300Z,65.76
2019-02-23T02:47:31.698Z,65.99
2019-02-23T02:50:00.441Z,66.17
2019-02-23T02:52:28.848Z,66.59
2019-02-23T02:54:57.267Z,66.60
2019-02-23T02:57:25.659Z,66.80
2019-02-23T02:59:54.073Z,66.73
2019-02-23T03:02:22.473Z,66.88
2019-02-23T03:04:51.230Z,66.98
2019-02-23T03:07:19.636Z,67.11
2019-02-23T03:09:48.039Z,67.23
2019-02-23T03:12:16.432Z,67.39
2019-02-23T03:14:44.854Z,67.66
2019-02-23T03:17:13.526Z,67.89
2019-02-23T03:19:42.213Z,68.11
2019-02-23T03:22:10.643Z,68.03
2019-02-23T03:24:39.050Z,68.07
2019-02-23T03:27:07.865Z,68.10
2019-02-23T03:29:36.264Z,68.21
2019-02-23T03:32:04.679Z,68.25
2019-02-23T03:34:33.074Z,68.32
2019-02-23T03:37:01.498Z,68.46
2019-02-23T03:39:30.163Z,68.46
2019-02-23T03:41:58.644Z,68.51
2019-02-23T03:44:27.044Z,68.57
2019-02-23T03:46:55.457Z,68.58
2019-02-23T03:49:23.835Z,68.56
2019-02-23T03:51:52.246Z,68.62
2019-02-23T03:54:20.709Z,68.75
2019-02-23T03:56:49.446Z,68.75
2019-02-23T03:59:17.853Z,68.70
2019-02-23T04:01:46.334Z,68.84
2019-02-23T04:04:14.737Z,68.88
2019-02-23T04:06:43.147Z,68.76
2019-02-23T04:09:11.539Z,68.88
2019-02-23T04:11:40.226Z,68.97
2019-02-23T04:14:08.633Z,69.01
2019-02-23T04:16:37.031Z,69.01
2019-02-23T04:19:05.442Z,69.06
2019-02-23T04:21:33.844Z,69.07
2019-02-23T04:24:02.274Z,69.00
2019-02-23T04:26:30.671Z,68.99
2019-02-23T04:28:59.082Z,68.97
2019-02-23T04:31:27.496Z,68.91
2019-02-23T04:33:55.918Z,68.96
2019-02-23T04:36:24.663Z,68.98
2019-02-23T04:38:53.079Z,68.97
2019-02-23T04:41:21.481Z,68.94
2019-02-23T04:43:49.888Z,68.96
2019-02-23T04:46:18.295Z,68.94
2019-02-23T04:48:46.783Z,68.92
2019-02-23T04:51:15.176Z,68.94
2019-02-23T04:53:43.588Z,68.96
2019-02-23T04:56:11.989Z,68.96
2019-02-23T04:58:40.417Z,68.98
2019-02-23T05:01:08.820Z,69.03
2019-02-23T05:03:37.219Z,69.08
2019-02-23T05:06:05.638Z,69.23
2019-02-23T05:08:34.320Z,69.41
2019-02-23T05:11:02.742Z,69.58
2019-02-23T05:13:31.159Z,69.75
2019-02-23T05:15:59.584Z,69.79
2019-02-23T05:18:27.990Z,69.94
2019-02-23T05:20:56.403Z,70.00
2019-02-23T05:23:25.500Z,70.04
2019-02-23T05:25:53.924Z,70.10
2019-02-23T05:28:22.322Z,70.17
2019-02-23T05:30:50.740Z,70.17
2019-02-23T05:33:19.181Z,70.07
2019-02-23T05:35:47.550Z,70.01
2019-02-23T05:38:15.954Z,69.94
2019-02-23T05:40:44.663Z,69.93
2019-02-23T05:43:13.367Z,70.01
2019-02-23T05:45:41.778Z,69.96
2019-02-23T05:48:10.181Z,69.85
2019-02-23T05:50:38.974Z,69.64
2019-02-23T05:53:07.370Z,69.56
2019-02-23T05:55:36.069Z,69.51
2019-02-23T05:58:04.465Z,69.45
2019-02-23T06:00:32.886Z,69.39
2019-02-23T06:03:01.290Z,69.42
2019-02-23T06:05:29.681Z,69.40
2019-02-23T06:07:58.368Z,69.37
2019-02-23T06:10:27.072Z,69.35
2019-02-23T06:12:55.473Z,69.35
2019-02-23T06:15:24.247Z,69.53
2019-02-23T06:17:52.656Z,69.42
2019-02-23T06:20:21.384Z,69.44
2019-02-23T06:22:49.806Z,69.41
2019-02-23T06:25:18.219Z,69.06
2019-02-23T06:27:46.626Z,68.74
2019-02-23T06:30:18.234Z,68.43
2019-02-23T06:32:45.167Z,68.26
2019-02-23T06:35:13.573Z,68.23
2019-02-23T06:37:42.010Z,68.16
2019-02-23T06:40:11.837Z,68.04
2019-02-23T06:42:40.692Z,67.95
2019-02-23T06:45:11.729Z,67.83
2019-02-23T06:47:40.183Z,67.85
2019-02-23T06:50:09.018Z,67.82
2019-02-23T06:52:37.424Z,67.60
2019-02-23T06:55:06.964Z,67.62
2019-02-23T06:57:35.368Z,67.70
2019-02-23T07:00:06.126Z,67.76
2019-02-23T07:02:34.826Z,67.82
2019-02-23T07:05:08.221Z,67.71
2019-02-23T07:07:39.084Z,67.79
2019-02-23T07:10:18.008Z,67.80
2019-02-23T07:12:47.043Z,67.92
2019-02-23T07:15:15.882Z,67.91
2019-02-23T07:17:44.922Z,67.93
2019-02-23T07:20:13.634Z,68.03
2019-02-23T07:22:42.216Z,67.80
2019-02-23T07:25:11.711Z,67.72
2019-02-23T07:27:40.315Z,67.59
2019-02-23T07:30:11.807Z,67.46
2019-02-23T07:32:40.528Z,67.21
2019-02-23T07:35:09.289Z,66.98
2019-02-23T07:37:37.998Z,66.79
2019-02-23T07:40:11.445Z,66.63
2019-02-23T07:42:39.846Z,66.60
2019-02-23T07:45:10.020Z,66.54
2019-02-23T07:47:38.422Z,66.35
2019-02-23T07:50:12.728Z,66.34
2019-02-23T07:52:41.128Z,66.26
2019-02-23T07:55:09.536Z,66.09
2019-02-23T07:57:37.969Z,65.98
2019-02-23T08:00:12.222Z,65.90
2019-02-23T08:02:42.269Z,65.76
2019-02-23T08:05:10.954Z,65.49
2019-02-23T08:07:40.078Z,65.39
2019-02-23T08:10:10.494Z,65.20
2019-02-23T08:12:39.266Z,64.76
2019-02-23T08:15:10.025Z,64.48
2019-02-23T08:17:38.825Z,64.11
2019-02-23T08:20:14.014Z,63.86
2019-02-23T08:22:42.741Z,63.62
2019-02-23T08:25:13.239Z,62.98
2019-02-23T08:27:41.652Z,63.01
2019-02-23T08:30:15.065Z,62.88
2019-02-23T08:32:43.468Z,62.64
2019-02-23T08:35:11.868Z,62.41
2019-02-23T08:37:40.281Z,62.15
2019-02-23T08:40:13.623Z,61.67
2019-02-23T08:42:42.340Z,61.34
2019-02-23T08:45:11.472Z,61.38
2019-02-23T08:47:39.856Z,61.36
2019-02-23T08:50:14.163Z,61.09
2019-02-23T08:52:49.089Z,60.88
2019-02-23T08:55:14.348Z,60.73
2019-02-23T08:57:42.752Z,60.65
2019-02-23T09:00:14.053Z,60.32
2019-02-23T09:02:42.467Z,59.82
2019-02-23T09:05:11.837Z,59.59
2019-02-23T09:07:40.253Z,59.40
2019-02-23T09:10:11.092Z,59.14
2019-02-23T09:12:39.509Z,58.69
2019-02-23T09:15:09.367Z,58.32
2019-02-23T09:17:37.790Z,58.22
2019-02-23T09:23:00.235Z,57.83
2019-02-23T09:25:26.863Z,57.46
2019-02-23T09:27:55.297Z,57.19
2019-02-23T09:30:23.703Z,56.71
2019-02-23T09:32:52.275Z,56.09
2019-02-23T09:35:20.949Z,56.01
2019-02-23T09:37:49.352Z,55.88
2019-02-23T09:40:19.596Z,55.56
2019-02-23T09:42:48.070Z,55.25
2019-02-23T09:45:16.503Z,53.50
2019-02-23T09:47:44.904Z,54.33
2019-02-23T09:50:13.304Z,53.86
2019-02-23T09:52:42.104Z,53.67
2019-02-23T09:55:10.990Z,53.70
2019-02-23T09:57:39.410Z,53.71
2019-02-23T10:00:11.028Z,53.58
2019-02-23T10:02:39.426Z,53.71
2019-02-23T10:05:10.047Z,53.69
2019-02-23T10:07:38.272Z,53.68
2019-02-23T10:10:11.461Z,53.65
2019-02-23T10:12:39.867Z,53.61
2019-02-23T10:15:12.041Z,53.03
2019-02-23T10:17:40.751Z,53.37
2019-02-23T10:20:13.879Z,53.00
2019-02-23T10:22:42.293Z,52.96
2019-02-23T10:25:10.694Z,52.77
2019-02-23T10:27:39.348Z,52.54
2019-02-23T10:30:13.083Z,52.56
2019-02-23T10:32:41.738Z,52.44
2019-02-23T10:35:11.775Z,51.92
2019-02-23T10:37:40.186Z,51.41
2019-02-23T10:40:10.973Z,51.57
2019-02-23T10:42:39.373Z,51.50
2019-02-23T10:45:10.587Z,51.43
2019-02-23T10:47:38.989Z,51.63
2019-02-23T10:50:10.043Z,51.28
2019-02-23T10:52:38.437Z,51.02
2019-02-23T10:55:14.635Z,51.12
2019-02-23T10:57:43.039Z,50.06
2019-02-23T11:00:22.380Z,49.70
2019-02-23T11:02:50.942Z,49.34
2019-02-23T11:05:20.655Z,49.01
2019-02-23T11:07:49.070Z,48.83
2019-02-23T11:10:18.183Z,48.93
2019-02-23T11:12:46.848Z,49.01
2019-02-23T11:15:18.007Z,48.96
2019-02-23T11:17:46.404Z,48.99
2019-02-23T11:20:16.710Z,48.62
2019-02-23T11:22:45.110Z,48.29
2019-02-23T11:25:15.805Z,48.26
2019-02-23T11:27:44.193Z,48.18
2019-02-23T11:30:14.456Z,47.74
2019-02-23T11:32:42.868Z,47.56
2019-02-23T11:35:13.280Z,47.45
2019-02-23T11:37:41.684Z,47.51
2019-02-23T11:40:12.164Z,46.39
2019-02-23T11:42:40.555Z,46.29
2019-02-23T11:45:10.813Z,45.60
2019-02-23T11:47:39.241Z,45.39
2019-02-23T11:50:13.522Z,45.15
2019-02-23T11:52:42.214Z,44.79
2019-02-23T11:55:12.319Z,44.14
2019-02-23T11:57:40.763Z,43.95
2019-02-23T12:00:12.199Z,43.48
2019-02-23T12:02:51.778Z,42.23
2019-02-23T12:05:11.351Z,42.56
2019-02-23T12:07:39.754Z,42.54
2019-02-23T12:10:15.687Z,42.41
2019-02-23T12:12:44.431Z,42.41
2019-02-23T12:15:12.895Z,42.19
2019-02-23T12:17:41.308Z,41.83
2019-02-23T12:20:11.316Z,41.87
2019-02-23T12:22:39.736Z,41.23
2019-02-23T12:25:09.208Z,42.08
2019-02-23T12:27:37.601Z,42.23
2019-02-23T12:30:08.360Z,42.40
2019-02-23T12:32:45.761Z,42.65
2019-02-23T12:35:14.509Z,42.87
2019-02-23T12:37:42.983Z,42.92
2019-02-23T12:40:11.442Z,42.81
2019-02-23T12:42:39.862Z,42.89
2019-02-23T12:45:10.709Z,42.96
2019-02-23T12:47:39.117Z,42.96
2019-02-23T12:50:10.468Z,42.71
2019-02-23T12:52:39.178Z,42.50
2019-02-23T12:55:10.135Z,42.44
2019-02-23T12:57:38.807Z,41.95
2019-02-23T13:00:15.298Z,41.61
2019-02-23T13:02:42.921Z,41.35
2019-02-23T13:05:11.392Z,41.04
2019-02-23T13:07:40.066Z,41.06
2019-02-23T13:10:11.468Z,41.09
2019-02-23T13:13:03.777Z,40.85
2019-02-23T13:15:38.162Z,40.62
2019-02-23T13:18:18.652Z,40.71
2019-02-23T13:21:02.129Z,40.72
2019-02-23T13:23:54.516Z,40.48
2019-02-23T13:26:23.696Z,40.40
2019-02-23T13:29:19.230Z,40.33
2019-02-23T13:32:05.571Z,40.42
2019-02-23T13:34:37.866Z,40.52
2019-02-23T13:37:11.913Z,40.63
2019-02-23T13:40:01.514Z,40.55
2019-02-23T13:42:41.489Z,40.63
2019-02-23T13:45:25.321Z,40.37
2019-02-23T13:48:14.934Z,40.42
2019-02-23T13:51:04.788Z,40.70
2019-02-23T13:53:57.015Z,41.03
2019-02-23T13:56:43.384Z,42.05
2019-02-23T13:59:34.439Z,42.34
2019-02-23T14:02:28.396Z,42.18
2019-02-23T14:05:12.261Z,41.77
2019-02-23T14:08:00.500Z,42.08
2019-02-23T14:10:31.963Z,41.75
2019-02-23T14:13:15.433Z,41.83
2019-02-23T14:16:11.092Z,42.08
2019-02-23T14:18:57.699Z,42.01
2019-02-23T14:21:53.602Z,41.80
2019-02-23T14:24:49.786Z,41.67
2019-02-23T14:27:47.261Z,41.49
2019-02-23T14:30:27.020Z,41.50
2019-02-23T14:33:13.081Z,41.42
2019-02-23T14:36:01.083Z,41.25
2019-02-23T14:39:06.582Z,41.03
2019-02-23T14:41:57.177Z,40.87
2019-02-23T14:44:31.788Z,40.75
2019-02-23T14:47:09.313Z,40.83
2019-02-23T14:50:00.346Z,41.21
2019-02-23T14:52:49.693Z,41.35
2019-02-23T14:55:27.164Z,41.75
2019-02-23T14:58:13.525Z,42.24
2019-02-23T15:00:47.513Z,43.75
2019-02-23T15:03:33.688Z,42.74
2019-02-23T15:06:17.330Z,41.99
2019-02-23T15:08:54.836Z,41.47
2019-02-23T15:11:53.777Z,41.38
2019-02-23T15:14:46.778Z,41.07
2019-02-23T15:17:26.860Z,41.42
2019-02-23T15:20:12.508Z,41.46
2019-02-23T15:22:59.281Z,41.75
2019-02-23T15:25:36.624Z,41.50
2019-02-23T15:28:30.505Z,41.82
2019-02-23T15:30:58.658Z,41.99
2019-02-23T15:33:42.102Z,42.01
2019-02-23T15:36:34.858Z,41.98
2019-02-23T15:39:12.755Z,41.64
2019-02-23T15:42:08.813Z,41.16
2019-02-23T15:44:52.071Z,40.91
2019-02-23T15:47:26.111Z,40.28
2019-02-23T15:49:55.958Z,39.59
2019-02-23T15:52:24.483Z,39.76
2019-02-23T15:54:53.265Z,40.06
2019-02-23T15:57:22.255Z,40.60
2019-02-23T15:59:50.768Z,41.02
2019-02-23T16:02:19.289Z,41.40
2019-02-23T16:04:47.743Z,41.80
2019-02-23T16:07:16.428Z,41.93
2019-02-23T16:09:45.243Z,42.29
2019-02-23T16:12:13.694Z,42.79
2019-02-23T16:14:42.112Z,43.13
2019-02-23T16:17:10.560Z,43.57
2019-02-23T16:19:38.953Z,43.73
2019-02-23T16:22:07.411Z,43.98
2019-02-23T16:24:35.969Z,44.13
2019-02-23T16:27:04.440Z,44.48
2019-02-23T16:29:33.176Z,44.94
2019-02-23T16:32:01.973Z,45.10
2019-02-23T16:34:30.457Z,44.99
2019-02-23T16:36:58.914Z,44.91
2019-02-23T16:39:27.335Z,45.08
2019-02-23T16:41:55.749Z,45.24
2019-02-23T16:44:24.188Z,45.21
2019-02-23T16:46:52.626Z,45.28
2019-02-23T16:49:21.638Z,45.66
2019-02-23T16:51:50.072Z,45.68
2019-02-23T16:54:18.508Z,45.77
2019-02-23T16:56:46.983Z,46.04
2019-02-23T16:59:15.775Z,46.23
2019-02-23T17:01:44.204Z,46.33
2019-02-23T17:04:12.608Z,46.56
2019-02-23T17:06:41.103Z,46.85
2019-02-23T17:09:10.529Z,47.02
2019-02-23T17:11:39.195Z,47.04
2019-02-23T17:14:07.793Z,47.49
2019-02-23T17:16:36.232Z,47.86
2019-02-23T17:19:07.003Z,47.97
2019-02-23T17:21:35.489Z,48.06
2019-02-23T17:24:03.945Z,48.44
2019-02-23T17:26:32.374Z,48.56
2019-02-23T17:29:00.881Z,48.55
2019-02-23T17:31:29.389Z,48.74
2019-02-23T17:33:59.513Z,48.81
2019-02-23T17:36:28.216Z,49.17
2019-02-23T17:38:56.655Z,48.98
2019-02-23T17:41:25.078Z,49.06
2019-02-23T17:43:54.227Z,49.09
2019-02-23T17:46:22.797Z,48.91
2019-02-23T17:48:51.199Z,48.80
2019-02-23T17:51:19.626Z,48.81
2019-02-23T17:53:48.291Z,48.99
2019-02-23T17:56:16.729Z,49.29
2019-02-23T17:58:45.129Z,49.52
2019-02-23T18:01:13.529Z,49.64
2019-02-23T18:03:42.212Z,49.75
2019-02-23T18:06:10.612Z,49.92
2019-02-23T18:08:39.037Z,49.70
2019-02-23T18:11:07.762Z,49.63
2019-02-23T18:13:36.207Z,49.06
2019-02-23T18:16:04.623Z,49.13
2019-02-23T18:18:33.051Z,48.93
2019-02-23T18:21:02.001Z,48.71
2019-02-23T18:23:30.380Z,48.81
2019-02-23T18:25:58.803Z,48.67
2019-02-23T18:28:27.204Z,48.38
2019-02-23T18:30:55.649Z,48.29
2019-02-23T18:33:24.431Z,48.13
2019-02-23T18:35:53.271Z,47.98
2019-02-23T18:38:21.765Z,47.83
